sensor_id;sensor_type;location;lat;lon;timestamp;pressure;altitude;pressure_sealevel;temperature;humidity
75188;BME280;63762;51.334;22.108;2023-05-07T00:04:54;102061.94;;;6.40;81.64
75188;BME280;63762;51.334;22.108;2023-05-07T00:15:03;102071.02;;;6.36;81.74
75188;BME280;63762;51.334;22.108;2023-05-07T00:25:09;102073.63;;;6.38;82.26
75188;BME280;63762;51.334;22.108;2023-05-07T00:35:16;102074.48;;;6.38;81.62
75188;BME280;63762;51.334;22.108;2023-05-07T00:45:26;102078.40;;;6.30;81.75
75188;BME280;63762;51.334;22.108;2023-05-07T00:55:30;102090.16;;;6.26;82.38
75188;BME280;63762;51.334;22.108;2023-05-07T01:05:38;102094.63;;;6.25;82.17
75188;BME280;63762;51.334;22.108;2023-05-07T01:15:45;102081.44;;;6.21;82.52
75188;BME280;63762;51.334;22.108;2023-05-07T01:25:52;102083.33;;;6.19;82.79
75188;BME280;63762;51.334;22.108;2023-05-07T01:35:59;102083.09;;;6.25;82.51
75188;BME280;63762;51.334;22.108;2023-05-07T01:46:06;102085.05;;;6.20;82.73
75188;BME280;63762;51.334;22.108;2023-05-07T01:56:13;102096.45;;;6.25;82.78
75188;BME280;63762;51.334;22.108;2023-05-07T02:06:20;102093.50;;;6.31;82.51
75188;BME280;63762;51.334;22.108;2023-05-07T02:16:28;102091.77;;;6.30;82.55
75188;BME280;63762;51.334;22.108;2023-05-07T02:26:34;102101.08;;;6.20;82.69
75188;BME280;63762;51.334;22.108;2023-05-07T02:36:42;102097.98;;;6.09;82.84
75188;BME280;63762;51.334;22.108;2023-05-07T02:46:49;102113.56;;;6.19;82.64
75188;BME280;63762;51.334;22.108;2023-05-07T02:56:56;102116.17;;;6.21;82.37
75188;BME280;63762;51.334;22.108;2023-05-07T03:07:03;102134.21;;;6.16;82.35
75188;BME280;63762;51.334;22.108;2023-05-07T03:17:10;102142.16;;;6.17;82.38
75188;BME280;63762;51.334;22.108;2023-05-07T03:27:17;102147.57;;;6.16;82.38
75188;BME280;63762;51.334;22.108;2023-05-07T03:37:24;102162.88;;;6.11;82.47
75188;BME280;63762;51.334;22.108;2023-05-07T03:47:31;102166.77;;;6.25;82.50
75188;BME280;63762;51.334;22.108;2023-05-07T03:57:39;102175.02;;;6.19;82.37
75188;BME280;63762;51.334;22.108;2023-05-07T04:07:46;102181.24;;;6.20;82.53
75188;BME280;63762;51.334;22.108;2023-05-07T04:17:53;102189.71;;;6.31;82.46
75188;BME280;63762;51.334;22.108;2023-05-07T04:28:00;102212.85;;;6.32;82.04
75188;BME280;63762;51.334;22.108;2023-05-07T04:38:07;102215.05;;;6.21;82.12
75188;BME280;63762;51.334;22.108;2023-05-07T04:48:14;102215.30;;;6.15;82.06
75188;BME280;63762;51.334;22.108;2023-05-07T04:58:21;102232.95;;;6.19;82.25
75188;BME280;63762;51.334;22.108;2023-05-07T05:08:29;102229.62;;;6.12;81.79
75188;BME280;63762;51.334;22.108;2023-05-07T05:18:36;102234.07;;;6.13;82.31
75188;BME280;63762;51.334;22.108;2023-05-07T05:28:43;102250.61;;;6.23;82.46
75188;BME280;63762;51.334;22.108;2023-05-07T05:38:50;102262.91;;;6.27;82.08
75188;BME280;63762;51.334;22.108;2023-05-07T05:48:57;102285.01;;;6.32;82.19
75188;BME280;63762;51.334;22.108;2023-05-07T05:59:04;102273.93;;;6.42;82.00
75188;BME280;63762;51.334;22.108;2023-05-07T06:09:11;102285.41;;;6.44;82.00
75188;BME280;63762;51.334;22.108;2023-05-07T06:19:19;102300.39;;;6.48;82.26
75188;BME280;63762;51.334;22.108;2023-05-07T06:29:26;102303.55;;;6.59;82.20
75188;BME280;63762;51.334;22.108;2023-05-07T06:39:33;102320.99;;;6.69;82.46
75188;BME280;63762;51.334;22.108;2023-05-07T06:49:40;102320.58;;;6.80;82.29
75188;BME280;63762;51.334;22.108;2023-05-07T06:59:47;102344.44;;;6.86;81.75
75188;BME280;63762;51.334;22.108;2023-05-07T07:09:54;102364.00;;;6.86;81.95
75188;BME280;63762;51.334;22.108;2023-05-07T07:20:02;102373.37;;;6.75;81.12
75188;BME280;63762;51.334;22.108;2023-05-07T07:30:09;102376.10;;;6.73;82.21
75188;BME280;63762;51.334;22.108;2023-05-07T07:40:16;102403.50;;;6.80;81.85
75188;BME280;63762;51.334;22.108;2023-05-07T07:50:23;102408.85;;;6.80;81.68
75188;BME280;63762;51.334;22.108;2023-05-07T08:00:30;102415.53;;;6.68;81.84
75188;BME280;63762;51.334;22.108;2023-05-07T08:10:37;102432.09;;;6.78;81.96
75188;BME280;63762;51.334;22.108;2023-05-07T08:20:45;102432.38;;;6.70;82.08
75188;BME280;63762;51.334;22.108;2023-05-07T08:30:51;102444.34;;;6.60;82.64
75188;BME280;63762;51.334;22.108;2023-05-07T08:40:58;102465.56;;;6.65;82.12
75188;BME280;63762;51.334;22.108;2023-05-07T08:51:06;102474.57;;;6.62;82.28
75188;BME280;63762;51.334;22.108;2023-05-07T09:01:14;102470.27;;;6.58;82.95
75188;BME280;63762;51.334;22.108;2023-05-07T09:11:23;102460.64;;;6.53;83.05
75188;BME280;63762;51.334;22.108;2023-05-07T09:21:27;102460.33;;;6.62;82.38
75188;BME280;63762;51.334;22.108;2023-05-07T09:31:37;102484.75;;;6.76;81.71
75188;BME280;63762;51.334;22.108;2023-05-07T09:41:45;102493.19;;;6.90;80.64
75188;BME280;63762;51.334;22.108;2023-05-07T09:51:50;102521.46;;;6.97;79.71
75188;BME280;63762;51.334;22.108;2023-05-07T10:01:57;102529.48;;;6.97;79.19
75188;BME280;63762;51.334;22.108;2023-05-07T10:12:03;102546.27;;;7.02;78.76
75188;BME280;63762;51.334;22.108;2023-05-07T10:22:11;102543.05;;;7.16;78.83
75188;BME280;63762;51.334;22.108;2023-05-07T10:32:30;102558.62;;;7.29;78.21
75188;BME280;63762;51.334;22.108;2023-05-07T10:42:31;102561.09;;;7.58;77.62
75188;BME280;63762;51.334;22.108;2023-05-07T10:52:32;102581.82;;;7.76;76.79
75188;BME280;63762;51.334;22.108;2023-05-07T11:12:52;102560.41;;;7.98;75.20
75188;BME280;63762;51.334;22.108;2023-05-07T11:22:54;102589.43;;;7.87;74.92
75188;BME280;63762;51.334;22.108;2023-05-07T11:33:00;102596.66;;;7.85;74.96
75188;BME280;63762;51.334;22.108;2023-05-07T11:43:12;102609.68;;;7.94;74.51
75188;BME280;63762;51.334;22.108;2023-05-07T11:53:14;102621.83;;;8.04;73.54
75188;BME280;63762;51.334;22.108;2023-05-07T12:03:21;102621.89;;;8.02;73.06
75188;BME280;63762;51.334;22.108;2023-05-07T12:13:28;102631.71;;;8.02;73.29
75188;BME280;63762;51.334;22.108;2023-05-07T12:23:36;102643.32;;;8.02;73.51
75188;BME280;63762;51.334;22.108;2023-05-07T12:33:43;102628.50;;;8.15;72.95
75188;BME280;63762;51.334;22.108;2023-05-07T12:43:50;102645.24;;;8.22;73.11
75188;BME280;63762;51.334;22.108;2023-05-07T12:53:57;102661.88;;;8.07;72.49
75188;BME280;63762;51.334;22.108;2023-05-07T13:04:04;102663.11;;;7.98;72.34
75188;BME280;63762;51.334;22.108;2023-05-07T13:14:11;102665.77;;;8.21;72.55
75188;BME280;63762;51.334;22.108;2023-05-07T13:24:18;102672.89;;;8.24;72.63
75188;BME280;63762;51.334;22.108;2023-05-07T13:34:25;102679.92;;;8.26;72.24
75188;BME280;63762;51.334;22.108;2023-05-07T13:44:32;102677.95;;;8.31;71.75
75188;BME280;63762;51.334;22.108;2023-05-07T13:54:39;102681.66;;;8.27;71.63
75188;BME280;63762;51.334;22.108;2023-05-07T14:04:46;102697.63;;;8.30;71.43
75188;BME280;63762;51.334;22.108;2023-05-07T14:14:54;102696.34;;;8.40;71.83
75188;BME280;63762;51.334;22.108;2023-05-07T14:25:01;102705.92;;;8.47;71.86
75188;BME280;63762;51.334;22.108;2023-05-07T14:35:08;102729.12;;;8.48;71.63
75188;BME280;63762;51.334;22.108;2023-05-07T14:45:15;102731.63;;;8.53;71.22
75188;BME280;63762;51.334;22.108;2023-05-07T14:55:22;102738.34;;;8.41;70.95
75188;BME280;63762;51.334;22.108;2023-05-07T15:05:29;102746.27;;;8.44;70.92
75188;BME280;63762;51.334;22.108;2023-05-07T15:15:38;102747.35;;;8.39;70.96
75188;BME280;63762;51.334;22.108;2023-05-07T15:25:44;102759.80;;;8.41;70.79
75188;BME280;63762;51.334;22.108;2023-05-07T15:35:51;102759.57;;;8.47;71.04
75188;BME280;63762;51.334;22.108;2023-05-07T15:45:58;102773.65;;;8.52;71.02
75188;BME280;63762;51.334;22.108;2023-05-07T15:56:05;102786.24;;;8.50;71.10
75188;BME280;63762;51.334;22.108;2023-05-07T16:06:12;102782.77;;;8.48;71.80
75188;BME280;63762;51.334;22.108;2023-05-07T16:16:19;102782.10;;;8.42;71.98
75188;BME280;63762;51.334;22.108;2023-05-07T16:26:27;102784.73;;;8.43;70.90
75188;BME280;63762;51.334;22.108;2023-05-07T16:36:33;102782.99;;;8.42;70.86
75188;BME280;63762;51.334;22.108;2023-05-07T16:46:41;102791.70;;;8.93;69.86
75188;BME280;63762;51.334;22.108;2023-05-07T16:56:48;102788.33;;;8.65;69.53
75188;BME280;63762;51.334;22.108;2023-05-07T17:06:55;102794.99;;;8.55;70.11
75188;BME280;63762;51.334;22.108;2023-05-07T17:17:02;102806.45;;;8.60;70.22
75188;BME280;63762;51.334;22.108;2023-05-07T17:27:09;102822.66;;;8.57;70.13
75188;BME280;63762;51.334;22.108;2023-05-07T17:37:16;102823.68;;;8.53;70.28
75188;BME280;63762;51.334;22.108;2023-05-07T17:47:23;102838.38;;;8.43;70.15
75188;BME280;63762;51.334;22.108;2023-05-07T17:57:31;102837.20;;;8.27;70.51
75188;BME280;63762;51.334;22.108;2023-05-07T18:07:38;102860.18;;;8.08;70.80
75188;BME280;63762;51.334;22.108;2023-05-07T18:17:45;102886.40;;;8.00;70.83
75188;BME280;63762;51.334;22.108;2023-05-07T18:27:52;102883.92;;;7.94;70.66
75188;BME280;63762;51.334;22.108;2023-05-07T18:37:59;102895.88;;;7.84;70.74
75188;BME280;63762;51.334;22.108;2023-05-07T18:48:06;102899.61;;;7.80;70.54
75188;BME280;63762;51.334;22.108;2023-05-07T18:58:13;102910.23;;;7.83;70.14
75188;BME280;63762;51.334;22.108;2023-05-07T19:11:27;102896.29;;;7.72;70.14
75188;BME280;63762;51.334;22.108;2023-05-07T19:21:34;102901.65;;;7.72;70.50
75188;BME280;63762;51.334;22.108;2023-05-07T19:31:41;102909.92;;;7.65;70.22
75188;BME280;63762;51.334;22.108;2023-05-07T19:41:48;102916.19;;;7.38;70.80
75188;BME280;63762;51.334;22.108;2023-05-07T19:51:55;102919.23;;;7.26;70.87
75188;BME280;63762;51.334;22.108;2023-05-07T20:02:02;102931.16;;;7.16;71.01
75188;BME280;63762;51.334;22.108;2023-05-07T20:12:10;102919.79;;;7.09;70.57
75188;BME280;63762;51.334;22.108;2023-05-07T20:22:17;102941.55;;;6.97;69.85
75188;BME280;63762;51.334;22.108;2023-05-07T20:32:24;102955.52;;;6.76;69.70
75188;BME280;63762;51.334;22.108;2023-05-07T20:42:31;102954.32;;;6.57;69.77
75188;BME280;63762;51.334;22.108;2023-05-07T20:52:38;102974.45;;;6.38;70.04
75188;BME280;63762;51.334;22.108;2023-05-07T21:02:45;102974.76;;;6.26;70.19
75188;BME280;63762;51.334;22.108;2023-05-07T21:12:53;102985.91;;;6.08;70.39
75188;BME280;63762;51.334;22.108;2023-05-07T21:22:59;102988.98;;;5.93;70.88
75188;BME280;63762;51.334;22.108;2023-05-07T21:33:06;102996.63;;;5.70;70.63
75188;BME280;63762;51.334;22.108;2023-05-07T21:43:14;103003.17;;;5.57;70.87
75188;BME280;63762;51.334;22.108;2023-05-07T21:53:21;103015.00;;;5.44;71.12
75188;BME280;63762;51.334;22.108;2023-05-07T22:03:28;103024.98;;;5.36;71.39
75188;BME280;63762;51.334;22.108;2023-05-07T22:13:35;103027.84;;;5.27;71.12
75188;BME280;63762;51.334;22.108;2023-05-07T22:23:42;103027.20;;;5.16;71.11
75188;BME280;63762;51.334;22.108;2023-05-07T22:33:49;103031.86;;;5.05;71.42
75188;BME280;63762;51.334;22.108;2023-05-07T22:43:56;103032.88;;;4.99;71.46
75188;BME280;63762;51.334;22.108;2023-05-07T22:54:04;103042.02;;;4.86;71.70
75188;BME280;63762;51.334;22.108;2023-05-07T23:04:11;103039.54;;;4.76;73.43
75188;BME280;63762;51.334;22.108;2023-05-07T23:14:18;103026.97;;;4.84;74.56
75188;BME280;63762;51.334;22.108;2023-05-07T23:24:25;103026.73;;;4.96;75.33
75188;BME280;63762;51.334;22.108;2023-05-07T23:34:32;103018.60;;;5.00;73.91
75188;BME280;63762;51.334;22.108;2023-05-07T23:44:39;103009.83;;;4.95;73.35
75188;BME280;63762;51.334;22.108;2023-05-07T23:54:46;103019.77;;;4.87;72.89
